createdAt,value
2018-09-20T00:00:37.277Z,100742.41
2018-09-20T00:03:13.080Z,100740.38
2018-09-20T00:05:49.089Z,100738.04
2018-09-20T00:08:24.894Z,100739.38
2018-09-20T00:11:00.881Z,100725.98
2018-09-20T00:13:36.905Z,100729.31
2018-09-20T00:16:12.930Z,100729.62
2018-09-20T00:18:48.909Z,100724.26
2018-09-20T00:21:24.897Z,100720.77
2018-09-20T00:24:01.072Z,100725.44
2018-09-20T00:26:36.948Z,100722.90
2018-09-20T00:29:12.586Z,100723.70
2018-09-20T00:31:48.733Z,100724.73
2018-09-20T00:34:24.738Z,100728.75
2018-09-20T00:37:00.734Z,100736.29
2018-09-20T00:39:36.733Z,100736.80
2018-09-20T00:42:12.924Z,100737.30
2018-09-20T00:44:49.142Z,100735.45
2018-09-20T00:47:25.255Z,100732.77
2018-09-20T00:50:01.655Z,100731.73
2018-09-20T00:52:37.667Z,100729.06
2018-09-20T00:55:13.555Z,100734.11
2018-09-20T00:57:49.096Z,100731.23
2018-09-20T01:02:07.310Z,100731.89
2018-09-20T01:04:43.100Z,100727.77
2018-09-20T01:07:19.099Z,100730.40
2018-09-20T01:09:56.109Z,100729.20
2018-09-20T01:12:31.745Z,100733.06
2018-09-20T01:15:08.098Z,100731.19
2018-09-20T01:17:44.054Z,100726.36
2018-09-20T01:20:20.104Z,100730.69
2018-09-20T01:22:56.112Z,100736.38
2018-09-20T01:25:32.140Z,100732.86
2018-09-20T01:28:08.635Z,100727.50
2018-09-20T01:30:44.957Z,100726.36
2018-09-20T01:33:20.754Z,100734.90
2018-09-20T01:35:56.936Z,100735.73
2018-09-20T01:38:32.933Z,100732.22
2018-09-20T01:41:08.933Z,100735.73
2018-09-20T01:43:45.135Z,100736.55
2018-09-20T01:46:21.220Z,100733.06
2018-09-20T01:48:57.127Z,100735.73
2018-09-20T01:51:33.125Z,100738.42
2018-09-20T01:54:09.116Z,100737.08
2018-09-20T01:56:45.212Z,100741.59
2018-09-20T01:59:20.935Z,100743.77
2018-09-20T02:01:56.916Z,100742.09
2018-09-20T02:04:33.068Z,100749.63
2018-09-20T02:07:09.123Z,100755.98
2018-09-20T02:09:44.917Z,100755.83
2018-09-20T02:12:20.922Z,100754.15
2018-09-20T02:14:57.322Z,100757.52
2018-09-20T02:17:34.129Z,100761.20
2018-09-20T02:20:10.135Z,100760.20
2018-09-20T02:22:46.535Z,100761.55
2018-09-20T02:25:22.747Z,100762.55
2018-09-20T02:27:58.574Z,100761.73
2018-09-20T02:30:34.803Z,100765.75
2018-09-20T02:33:11.676Z,100764.08
2018-09-20T02:35:48.727Z,100767.59
2018-09-20T02:38:25.131Z,100772.11
2018-09-20T02:41:01.129Z,100776.13
2018-09-20T02:43:36.934Z,100776.13
2018-09-20T02:46:12.970Z,100780.15
2018-09-20T02:48:48.838Z,100779.31
2018-09-20T02:51:24.937Z,100779.00
2018-09-20T02:54:02.143Z,100778.66
2018-09-20T02:56:40.573Z,100776.88
2018-09-20T02:59:17.150Z,100774.05
2018-09-20T03:01:53.154Z,100778.56
2018-09-20T03:04:29.135Z,100775.89
2018-09-20T03:07:05.873Z,100777.42
2018-09-20T03:09:41.968Z,100770.39
2018-09-20T03:14:22.961Z,100793.54
2018-09-20T03:16:58.338Z,100793.01
2018-09-20T03:19:35.168Z,100799.39
2018-09-20T03:22:11.130Z,100795.38
2018-09-20T03:24:46.598Z,100797.02
2018-09-20T03:27:23.302Z,100797.36
2018-09-20T03:29:58.909Z,100796.72
2018-09-20T03:32:34.625Z,100798.05
2018-09-20T03:35:10.728Z,100797.55
2018-09-20T03:37:48.305Z,100803.22
2018-09-20T03:40:23.901Z,100809.61
2018-09-20T03:43:00.306Z,100814.13
2018-09-20T03:45:35.886Z,100818.64
2018-09-20T03:48:12.979Z,100825.29
2018-09-20T03:50:49.600Z,100823.14
2018-09-20T03:53:25.337Z,100828.50
2018-09-20T03:56:00.792Z,100827.66
2018-09-20T03:58:36.981Z,100832.67
2018-09-20T04:01:20.380Z,100830.00
2018-09-20T04:03:55.746Z,100829.00
2018-09-20T04:06:33.389Z,100835.19
2018-09-20T04:09:15.355Z,100834.16
2018-09-20T04:11:50.976Z,100832.17
2018-09-20T04:14:26.741Z,100834.02
2018-09-20T04:17:02.359Z,100835.55
2018-09-20T04:19:38.114Z,100833.17
2018-09-20T04:22:14.565Z,100835.36
2018-09-20T04:24:50.172Z,100834.16
2018-09-20T04:27:25.732Z,100833.52
2018-09-20T04:30:01.401Z,100836.00
2018-09-20T04:32:36.993Z,100834.50
2018-09-20T04:35:12.173Z,100835.95
2018-09-20T04:37:47.412Z,100828.27
2018-09-20T04:40:23.158Z,100831.59
2018-09-20T04:42:58.907Z,100831.92
2018-09-20T04:45:34.193Z,100839.43
2018-09-20T04:48:09.793Z,100836.09
2018-09-20T04:50:45.334Z,100834.87
2018-09-20T04:53:20.996Z,100829.01
2018-09-20T04:58:48.974Z,100824.20
2018-09-20T05:01:24.890Z,100834.61
2018-09-20T05:04:00.915Z,100829.05
2018-09-20T05:06:36.377Z,100825.88
2018-09-20T05:09:16.374Z,100827.02
2018-09-20T05:11:52.047Z,100824.84
2018-09-20T05:14:27.962Z,100825.83
2018-09-20T05:17:04.383Z,100831.04
2018-09-20T05:19:40.713Z,100832.19
2018-09-20T05:22:16.623Z,100828.81
2018-09-20T05:24:52.626Z,100816.45
2018-09-20T05:27:28.801Z,100814.06
2018-09-20T05:30:04.974Z,100816.55
2018-09-20T05:32:41.178Z,100810.70
2018-09-20T05:35:16.927Z,100806.98
2018-09-20T05:37:52.935Z,100811.64
2018-09-20T05:40:29.166Z,100810.30
2018-09-20T05:43:05.136Z,100807.63
2018-09-20T05:45:41.006Z,100805.28
2018-09-20T05:48:17.371Z,100808.27
2018-09-20T05:50:53.257Z,100812.12
2018-09-20T05:53:29.226Z,100803.25
2018-09-20T05:56:05.057Z,100808.95
2018-09-20T05:58:41.251Z,100811.79
2018-09-20T06:01:17.130Z,100801.07
2018-09-20T06:03:52.950Z,100798.73
2018-09-20T06:06:29.218Z,100794.71
2018-09-20T06:09:05.193Z,100798.73
2018-09-20T06:11:41.413Z,100795.86
2018-09-20T06:14:17.367Z,100804.04
2018-09-20T06:16:53.218Z,100796.84
2018-09-20T06:19:29.365Z,100801.16
2018-09-20T06:23:15.840Z,100799.52
2018-09-20T06:25:51.839Z,100793.46
2018-09-20T06:28:28.031Z,100790.28
2018-09-20T06:31:04.827Z,100792.96
2018-09-20T06:33:40.669Z,100788.94
2018-09-20T06:36:16.856Z,100793.27
2018-09-20T06:38:52.941Z,100785.23
2018-09-20T06:41:28.962Z,100786.57
2018-09-20T06:44:05.009Z,100788.75
2018-09-20T06:46:41.005Z,100785.73
2018-09-20T06:49:16.973Z,100791.42
2018-09-20T06:51:53.030Z,100787.72
2018-09-20T06:54:29.406Z,100787.41
2018-09-20T06:57:05.221Z,100786.91
2018-09-20T06:59:41.201Z,100788.25
2018-09-20T07:02:16.930Z,100785.03
2018-09-20T07:04:52.920Z,100776.99
2018-09-20T07:07:29.044Z,100777.33
2018-09-20T07:10:05.202Z,100780.34
2018-09-20T07:12:41.241Z,100766.14
2018-09-20T07:15:17.420Z,100767.79
2018-09-20T07:17:53.245Z,100763.47
2018-09-20T07:20:29.026Z,100762.59
2018-09-20T07:23:04.983Z,100755.05
2018-09-20T07:25:41.048Z,100751.54
2018-09-20T07:28:17.422Z,100751.23
2018-09-20T07:30:53.603Z,100754.61
2018-09-20T07:33:29.926Z,100752.77
2018-09-20T07:36:06.433Z,100755.95
2018-09-20T07:38:42.477Z,100754.27
2018-09-20T07:41:19.051Z,100747.27
2018-09-20T07:43:55.087Z,100749.61
2018-09-20T07:46:30.944Z,100738.75
2018-09-20T07:49:07.054Z,100740.62
2018-09-20T07:51:43.322Z,100739.78
2018-09-20T07:54:19.250Z,100739.95
2018-09-20T07:56:55.441Z,100743.66
2018-09-20T07:59:31.673Z,100744.16
2018-09-20T08:02:07.937Z,100750.56
2018-09-20T08:04:44.338Z,100747.55
2018-09-20T08:07:20.418Z,100746.54
2018-09-20T08:09:56.241Z,100752.70
2018-09-20T08:12:32.724Z,100753.05
2018-09-20T08:15:09.204Z,100747.55
2018-09-20T08:17:45.047Z,100759.09
2018-09-20T08:20:21.240Z,100758.45
2018-09-20T08:22:57.270Z,100759.80
2018-09-20T08:25:33.054Z,100759.26
2018-09-20T08:28:09.750Z,100758.11
2018-09-20T08:30:46.065Z,100762.13
2018-09-20T08:33:22.245Z,100761.83
2018-09-20T08:35:58.247Z,100767.19
2018-09-20T08:38:34.246Z,100765.31
2018-09-20T08:41:10.146Z,100771.02
2018-09-20T08:43:46.254Z,100776.56
2018-09-20T08:46:22.101Z,100773.24
2018-09-20T08:48:58.078Z,100775.92
2018-09-20T08:51:34.054Z,100775.58
2018-09-20T08:54:10.087Z,100778.45
2018-09-20T08:56:46.086Z,100781.12
2018-09-20T08:59:22.069Z,100778.61
2018-09-20T09:01:57.703Z,100785.00
2018-09-20T09:04:34.118Z,100783.02
2018-09-20T09:07:10.063Z,100784.36
2018-09-20T09:09:46.061Z,100786.70
2018-09-20T09:12:21.921Z,100783.72
2018-09-20T09:14:57.940Z,100785.55
2018-09-20T09:17:34.097Z,100780.89
2018-09-20T09:20:09.701Z,100781.39
2018-09-20T09:22:45.910Z,100781.89
2018-09-20T09:25:21.997Z,100791.77
2018-09-20T09:27:58.093Z,100790.96
2018-09-20T09:30:34.268Z,100799.69
2018-09-20T09:33:10.069Z,100792.16
2018-09-20T09:35:46.069Z,100795.83
2018-09-20T09:38:21.897Z,100791.51
2018-09-20T09:40:58.117Z,100789.83
2018-09-20T09:43:34.377Z,100790.86
2018-09-20T09:46:10.746Z,100781.14
2018-09-20T09:48:46.758Z,100789.68
2018-09-20T09:51:22.978Z,100786.50
2018-09-20T09:53:58.741Z,100784.21
2018-09-20T09:56:34.441Z,100783.38
2018-09-20T09:59:10.465Z,100789.23
2018-09-20T10:01:46.505Z,100790.42
2018-09-20T10:04:22.761Z,100786.09
2018-09-20T10:06:58.734Z,100785.25
2018-09-20T10:09:34.437Z,100783.77
2018-09-20T10:12:10.388Z,100778.61
2018-09-20T10:14:46.277Z,100783.31
2018-09-20T10:17:22.281Z,100787.15
2018-09-20T10:19:58.016Z,100790.33
2018-09-20T10:22:33.924Z,100793.20
2018-09-20T10:25:10.113Z,100792.02
2018-09-20T10:27:45.948Z,100788.20
2018-09-20T10:30:21.721Z,100777.98
2018-09-20T10:32:57.665Z,100774.66
2018-09-20T10:35:33.945Z,100779.86
2018-09-20T10:38:10.109Z,100779.56
2018-09-20T10:40:46.010Z,100777.38
2018-09-20T10:43:22.107Z,100782.39
2018-09-20T10:45:57.923Z,100787.62
2018-09-20T10:48:34.118Z,100786.79
2018-09-20T10:51:10.126Z,100788.12
2018-09-20T10:53:45.889Z,100778.11
2018-09-20T10:56:22.001Z,100770.58
2018-09-20T10:58:57.810Z,100767.26
2018-09-20T11:01:34.108Z,100761.11
2018-09-20T11:04:10.180Z,100756.59
2018-09-20T11:06:46.125Z,100750.70
2018-09-20T11:09:22.136Z,100759.43
2018-09-20T11:11:58.304Z,100759.96
2018-09-20T11:14:34.014Z,100763.97
2018-09-20T11:17:10.301Z,100766.16
2018-09-20T11:19:46.921Z,100770.17
2018-09-20T11:22:23.038Z,100764.02
2018-09-20T11:24:59.066Z,100776.21
2018-09-20T11:27:35.361Z,100778.73
2018-09-20T11:30:11.318Z,100770.56
2018-09-20T11:32:47.485Z,100771.25
2018-09-20T11:35:23.526Z,100772.58
2018-09-20T11:37:59.490Z,100766.59
2018-09-20T11:40:35.725Z,100765.94
2018-09-20T11:43:12.038Z,100765.63
2018-09-20T11:45:48.262Z,100768.15
2018-09-20T11:48:24.136Z,100763.80
2018-09-20T11:51:00.113Z,100766.66
2018-09-20T11:53:36.045Z,100762.30
2018-09-20T11:56:12.050Z,100773.19
2018-09-20T11:58:48.180Z,100772.85
2018-09-20T12:01:24.231Z,100777.05
2018-09-20T12:04:00.145Z,100770.86
2018-09-20T12:06:36.147Z,100779.92
2018-09-20T12:09:13.001Z,100785.77
2018-09-20T12:11:48.825Z,100787.10
2018-09-20T12:14:25.186Z,100790.27
2018-09-20T12:17:01.325Z,100786.27
2018-09-20T12:19:37.318Z,100796.13
2018-09-20T12:22:13.511Z,100798.14
2018-09-20T12:24:49.828Z,100805.17
2018-09-20T12:27:25.901Z,100796.13
2018-09-20T12:30:02.272Z,100801.34
2018-09-20T12:32:38.162Z,100796.66
2018-09-20T12:35:13.939Z,100805.67
2018-09-20T12:37:50.173Z,100811.20
2018-09-20T12:40:26.318Z,100813.04
2018-09-20T12:43:02.447Z,100809.22
2018-09-20T12:45:38.977Z,100810.21
2018-09-20T12:48:15.391Z,100815.75
2018-09-20T12:50:51.333Z,100822.09
2018-09-20T12:53:27.361Z,100818.76
2018-09-20T12:56:03.378Z,100819.26
2018-09-20T12:58:47.654Z,100821.62
2018-09-20T13:01:24.283Z,100825.62
2018-09-20T13:04:00.157Z,100823.30
2018-09-20T13:06:36.366Z,100825.97
2018-09-20T13:09:14.342Z,100825.00
2018-09-20T13:11:50.369Z,100822.48
2018-09-20T13:14:26.730Z,100821.33
2018-09-20T13:17:03.163Z,100829.01
2018-09-20T13:19:39.573Z,100824.03
2018-09-20T13:22:16.174Z,100830.72
2018-09-20T13:24:52.665Z,100837.40
2018-09-20T13:27:28.491Z,100835.72
2018-09-20T13:30:04.658Z,100843.92
2018-09-20T13:32:41.139Z,100847.94
2018-09-20T13:35:17.414Z,100842.42
2018-09-20T13:37:53.630Z,100836.58
2018-09-20T13:40:29.387Z,100846.75
2018-09-20T13:43:05.503Z,100842.91
2018-09-20T13:45:42.299Z,100839.55
2018-09-20T13:48:18.523Z,100848.05
2018-09-20T13:50:54.858Z,100848.70
2018-09-20T13:53:31.174Z,100849.84
2018-09-20T13:56:07.353Z,100853.21
2018-09-20T13:58:46.910Z,100853.87
2018-09-20T14:01:23.150Z,100858.53
2018-09-20T14:03:59.222Z,100862.70
2018-09-20T14:06:35.191Z,100864.04
2018-09-20T14:09:15.034Z,100866.84
2018-09-20T14:11:51.381Z,100880.90
2018-09-20T14:14:27.523Z,100880.72
2018-09-20T14:17:03.878Z,100888.09
2018-09-20T14:19:40.247Z,100889.73
2018-09-20T14:22:16.259Z,100892.25
2018-09-20T14:24:52.183Z,100897.77
2018-09-20T14:27:28.359Z,100898.91
2018-09-20T14:30:04.671Z,100899.76
2018-09-20T14:32:41.128Z,100908.09
2018-09-20T14:35:17.526Z,100909.43
2018-09-20T14:37:53.799Z,100910.92
2018-09-20T14:40:30.211Z,100911.42
2018-09-20T14:43:06.388Z,100916.09
2018-09-20T14:45:42.871Z,100924.80
2018-09-20T14:48:19.090Z,100922.63
2018-09-20T14:50:55.500Z,100916.25
2018-09-20T14:53:32.803Z,100919.77
2018-09-20T14:56:09.197Z,100922.60
2018-09-20T14:58:45.498Z,100931.47
2018-09-20T15:01:21.928Z,100934.45
2018-09-20T15:03:58.371Z,100927.77
2018-09-20T15:06:34.682Z,100928.11
2018-09-20T15:09:14.931Z,100930.59
2018-09-20T15:11:51.203Z,100937.94
2018-09-20T15:14:28.242Z,100937.45
2018-09-20T15:17:04.785Z,100933.78
2018-09-20T15:19:41.367Z,100933.09
2018-09-20T15:22:17.433Z,100939.78
2018-09-20T15:24:53.364Z,100940.96
2018-09-20T15:27:29.327Z,100936.29
2018-09-20T15:30:05.194Z,100934.48
2018-09-20T15:32:41.401Z,100942.72
2018-09-20T15:35:17.134Z,100938.38
2018-09-20T15:37:53.094Z,100945.41
2018-09-20T15:40:29.133Z,100944.06
2018-09-20T15:43:04.542Z,100939.23
2018-09-20T15:45:40.181Z,100944.95
2018-09-20T15:48:15.398Z,100950.45
2018-09-20T15:50:51.011Z,100946.95
2018-09-20T15:53:27.211Z,100949.47
2018-09-20T15:56:02.847Z,100948.00
2018-09-20T15:58:38.840Z,100948.15
2018-09-20T16:01:15.890Z,100947.48
2018-09-20T16:03:51.581Z,100944.16
2018-09-20T16:06:27.217Z,100943.00
2018-09-20T16:09:02.591Z,100947.16
2018-09-20T16:11:37.985Z,100950.03
2018-09-20T16:14:13.598Z,100954.06
2018-09-20T16:16:49.973Z,100955.03
2018-09-20T16:19:25.982Z,100957.03
2018-09-20T16:22:02.252Z,100957.05
2018-09-20T16:24:40.857Z,100953.68
2018-09-20T16:27:16.483Z,100953.49
2018-09-20T16:30:15.541Z,100953.34
2018-09-20T16:33:04.691Z,100954.31
2018-09-20T16:35:52.009Z,100956.33
2018-09-20T16:38:36.927Z,100957.67
2018-09-20T16:41:14.952Z,100960.16
2018-09-20T16:43:50.603Z,100960.82
2018-09-20T16:46:26.232Z,100955.81
2018-09-20T16:49:01.403Z,100957.50
2018-09-20T16:51:36.783Z,100950.63
2018-09-20T16:54:12.149Z,100950.63
2018-09-20T16:56:47.597Z,100958.81
2018-09-20T16:59:22.855Z,100954.95
2018-09-20T17:01:58.229Z,100952.97
2018-09-20T17:04:33.683Z,100956.62
2018-09-20T17:07:09.440Z,100957.81
2018-09-20T17:09:44.891Z,100956.61
2018-09-20T17:12:18.966Z,100965.45
2018-09-20T17:14:54.273Z,100964.62
2018-09-20T17:17:29.617Z,100962.10
2018-09-20T17:20:05.295Z,100968.61
2018-09-20T17:22:41.026Z,100960.92
2018-09-20T17:25:16.634Z,100960.24
2018-09-20T17:27:52.260Z,100959.22
2018-09-20T17:30:28.241Z,100961.70
2018-09-20T17:33:04.213Z,100961.37
2018-09-20T17:35:40.536Z,100963.86
2018-09-20T17:38:17.450Z,100958.85
2018-09-20T17:40:57.496Z,100960.00
2018-09-20T17:43:42.904Z,100956.17
2018-09-20T17:46:18.449Z,100956.65
2018-09-20T17:48:54.168Z,100954.47
2018-09-20T17:51:30.434Z,100948.44
2018-09-20T17:54:06.622Z,100950.40
2018-09-20T17:56:43.426Z,100941.19
2018-09-20T17:59:19.593Z,100939.66
2018-09-20T18:01:55.007Z,100941.34
2018-09-20T18:04:30.605Z,100934.31
2018-09-20T18:07:06.155Z,100933.97
2018-09-20T18:09:41.694Z,100927.92
2018-09-20T18:12:17.245Z,100923.23
2018-09-20T18:14:52.450Z,100923.04
2018-09-20T18:17:28.074Z,100924.03
2018-09-20T18:20:03.861Z,100921.86
2018-09-20T18:22:39.433Z,100920.52
2018-09-20T18:25:15.043Z,100922.69
2018-09-20T18:27:48.507Z,100926.21
2018-09-20T18:30:23.697Z,100916.53
2018-09-20T18:32:59.285Z,100922.51
2018-09-20T18:35:34.885Z,100916.34
2018-09-20T18:38:10.759Z,100914.32
2018-09-20T18:40:46.054Z,100910.80
2018-09-20T18:43:21.630Z,100908.47
2018-09-20T18:45:57.068Z,100901.43
2018-09-20T18:48:32.874Z,100905.79
2018-09-20T18:51:08.444Z,100900.77
2018-09-20T18:53:44.080Z,100896.42
2018-09-20T18:56:20.993Z,100899.44
2018-09-20T18:58:56.445Z,100895.77
2018-09-20T19:01:32.022Z,100894.92
2018-09-20T19:04:07.644Z,100890.41
2018-09-20T19:06:43.251Z,100892.89
2018-09-20T19:09:18.650Z,100886.52
2018-09-20T19:11:54.293Z,100874.00
2018-09-20T19:17:22.553Z,100875.69
2018-09-20T19:19:58.157Z,100871.94
2018-09-20T19:22:33.494Z,100868.26
2018-09-20T19:25:08.923Z,100861.38
2018-09-20T19:27:44.080Z,100860.69
2018-09-20T19:30:19.639Z,100856.36
2018-09-20T19:32:54.951Z,100858.51
2018-09-20T19:35:30.661Z,100856.36
2018-09-20T19:38:06.035Z,100853.49
2018-09-20T19:40:41.867Z,100849.81
2018-09-20T19:43:18.184Z,100853.14
2018-09-20T19:45:54.219Z,100845.61
2018-09-20T19:48:29.662Z,100841.09
2018-09-20T19:51:05.632Z,100833.17
2018-09-20T19:53:41.479Z,100834.70
2018-09-20T19:56:17.442Z,100834.40
2018-09-20T19:58:54.682Z,100827.86
2018-09-20T20:01:30.624Z,100824.88
2018-09-20T20:04:06.201Z,100824.88
2018-09-20T20:06:42.169Z,100814.66
2018-09-20T20:09:18.418Z,100817.69
2018-09-20T20:11:54.193Z,100819.02
2018-09-20T20:14:30.294Z,100810.15
2018-09-20T20:17:06.201Z,100810.15
2018-09-20T20:19:42.322Z,100810.65
2018-09-20T20:22:18.217Z,100815.66
2018-09-20T20:24:54.269Z,100811.11
2018-09-20T20:27:30.300Z,100810.41
2018-09-20T20:30:06.193Z,100807.23
2018-09-20T20:32:42.245Z,100803.72
2018-09-20T20:35:18.302Z,100804.89
2018-09-20T20:37:54.303Z,100803.06
2018-09-20T20:40:30.301Z,100797.51
2018-09-20T20:43:06.849Z,100792.45
2018-09-20T20:45:42.978Z,100788.13
2018-09-20T20:48:19.106Z,100784.95
2018-09-20T20:50:55.293Z,100783.09
2018-09-20T20:53:31.121Z,100785.60
2018-09-20T20:56:07.276Z,100781.20
2018-09-20T20:58:43.359Z,100778.52
2018-09-20T21:01:21.932Z,100779.36
2018-09-20T21:03:57.921Z,100775.48
2018-09-20T21:06:33.928Z,100769.63
2018-09-20T21:09:11.881Z,100769.44
2018-09-20T21:11:48.218Z,100765.22
2018-09-20T21:14:24.227Z,100770.27
2018-09-20T21:17:00.514Z,100766.06
2018-09-20T21:19:36.521Z,100759.86
2018-09-20T21:22:12.504Z,100760.51
2018-09-20T21:24:48.688Z,100759.70
2018-09-20T21:27:24.670Z,100754.98
2018-09-20T21:30:00.685Z,100752.31
2018-09-20T21:32:36.689Z,100744.58
2018-09-20T21:35:12.662Z,100742.55
2018-09-20T21:37:48.701Z,100741.59
2018-09-20T21:40:24.316Z,100744.52
2018-09-20T21:43:01.104Z,100735.98
2018-09-20T21:45:37.529Z,100743.02
2018-09-20T21:48:13.555Z,100740.48
2018-09-20T21:50:49.532Z,100739.95
2018-09-20T21:53:25.313Z,100733.93
2018-09-20T21:56:01.630Z,100734.23
2018-09-20T22:01:17.503Z,100728.52
2018-09-20T22:03:54.205Z,100724.80
2018-09-20T22:06:30.317Z,100718.44
2018-09-20T22:09:07.336Z,100722.26
2018-09-20T22:11:43.636Z,100722.59
2018-09-20T22:14:20.228Z,100710.34
2018-09-20T22:16:56.370Z,100709.00
2018-09-20T22:19:32.512Z,100715.03
2018-09-20T22:22:08.675Z,100704.65
2018-09-20T22:24:48.670Z,100708.67
2018-09-20T22:27:24.942Z,100701.77
2018-09-20T22:30:01.343Z,100709.31
2018-09-20T22:32:37.514Z,100709.61
2018-09-20T22:35:13.471Z,100700.73
2018-09-20T22:37:49.324Z,100702.22
2018-09-20T22:40:25.338Z,100698.20
2018-09-20T22:43:01.338Z,100703.89
2018-09-20T22:45:37.978Z,100698.03
2018-09-20T22:48:14.128Z,100699.37
2018-09-20T22:50:50.380Z,100700.81
2018-09-20T22:53:26.921Z,100698.27
2018-09-20T22:56:02.960Z,100696.43
2018-09-20T22:58:39.345Z,100685.27
2018-09-20T23:01:19.535Z,100701.09
2018-09-20T23:03:55.526Z,100691.00
2018-09-20T23:06:31.388Z,100688.33
2018-09-20T23:09:09.123Z,100689.16
2018-09-20T23:11:45.378Z,100690.30
2018-09-20T23:14:21.343Z,100691.28
2018-09-20T23:16:58.320Z,100691.78
2018-09-20T23:19:34.334Z,100691.28
2018-09-20T23:22:10.815Z,100687.89
2018-09-20T23:24:47.039Z,100686.89
2018-09-20T23:27:23.009Z,100689.37
2018-09-20T23:29:59.152Z,100682.16
2018-09-20T23:32:35.275Z,100683.80
2018-09-20T23:35:10.841Z,100686.82
2018-09-20T23:37:47.080Z,100677.30
2018-09-20T23:40:22.717Z,100680.13
2018-09-20T23:42:58.374Z,100680.25
2018-09-20T23:45:34.369Z,100682.94
2018-09-20T23:48:10.560Z,100674.69
2018-09-20T23:50:46.367Z,100673.48
2018-09-20T23:53:22.545Z,100673.66
2018-09-20T23:55:58.548Z,100674.83
2018-09-20T23:58:34.369Z,100677.50
